Ben Mered, Algeria

11:57 AM CET on May 27, 2017 (GMT +0100)
Algiers Airport | | Change Station

Elev 82 ft 36.72 °N, 3.25 °E | Updated 27 minutes ago

Scattered Clouds
Scattered Clouds
81 °F
Feels Like 83 °F
N
8
Wind Variable Wind from NW

Today
High -- | Low -- °F
--% Chance of Precip.
Yesterday
High -- | Low -- °F
Precip. -- in
Pressure 29.95 in
Visibility 5.6 miles
Clouds Few 2000 ft
Scattered Clouds 23000 ft
Heat Index 83 °F
Dew Point 66 °F
Humidity 61%
Rainfall 0.00 in
Snow Depth Not available.
5:31 AM 7:57 PM
Waxing Crescent, 4% visible
METAR DAAG 271030Z 32007KT 290V360 9000 FEW020 SCT230 27/19 Q1014
Pressure 29.95 in
Visibility 5.6 miles
Clouds Few 2000 ft
Scattered Clouds 23000 ft
Heat Index 83 °F
Dew Point 66 °F
Humidity 61%
Rainfall 0.00 in
Snow Depth Not available.
5:31 AM 7:57 PM
Waxing Crescent, 4% visible
METAR DAAG 271030Z 32007KT 290V360 9000 FEW020 SCT230 27/19 Q1014

Get Severe Weather Alerts

Thanks for signing up!

Be on the lookout for a verification email in your inbox.

You'll start receiving the daily forecast at 6 AM.

×

10-Day Weather Forecast

No radar image for this location.
×

Almanac

Astronomy

May. 27, 2017 Rise Set
Actual Time
Civil Twilight
Nautical Twilight
Astronomical Twilight
Moon
Length of Visible Light
Length of Day
Tomorrow will be .
, % of the Moon is Illuminated

Today's Extremes

Country Highs Country Lows

Community

WunderPhotos

Category 6

Welcome to Category 6. This is the collective home for Weather Underground's featured writeups by Dr. Jeff Masters (right), Bob Henson (left), Chris Burt, and other regular contributors.

Nearby

Air Quality

  Air Quality AQ Index Pollutant
Not available.

Snow Depth

Station Depth Elevation

Earthquake Activity

City Distance Mag. Time & Date
Minimum magnitude displayed is 2.5.

Coastal Water Temperatures

Place Temperature

Stations

Nearby Weather Stations

Station Location Temp. Windchill Dew Point Humidity Wind Precip. Elev Updated Type